sensor_id;sensor_type;location;lat;lon;timestamp;P1;durP1;ratioP1;P2;durP2;ratioP2
19358;SDS011;9815;52.334;20.890;2023-02-11T00:00:39;51.90;;;20.47;;
19358;SDS011;9815;52.334;20.890;2023-02-11T00:03:07;50.00;;;18.77;;
19358;SDS011;9815;52.334;20.890;2023-02-11T00:05:36;54.43;;;18.93;;
19358;SDS011;9815;52.334;20.890;2023-02-11T00:08:04;46.20;;;19.10;;
19358;SDS011;9815;52.334;20.890;2023-02-11T00:10:32;50.57;;;18.90;;
19358;SDS011;9815;52.334;20.890;2023-02-11T00:13:00;57.70;;;20.40;;
19358;SDS011;9815;52.334;20.890;2023-02-11T00:15:28;47.03;;;18.93;;
19358;SDS011;9815;52.334;20.890;2023-02-11T00:17:57;48.57;;;18.43;;
19358;SDS011;9815;52.334;20.890;2023-02-11T00:20:25;54.10;;;17.57;;
19358;SDS011;9815;52.334;20.890;2023-02-11T00:22:53;49.00;;;19.03;;
19358;SDS011;9815;52.334;20.890;2023-02-11T00:25:21;50.20;;;19.20;;
19358;SDS011;9815;52.334;20.890;2023-02-11T00:27:49;49.77;;;18.83;;
19358;SDS011;9815;52.334;20.890;2023-02-11T00:30:17;51.47;;;18.90;;
19358;SDS011;9815;52.334;20.890;2023-02-11T00:32:45;46.97;;;17.93;;
19358;SDS011;9815;52.334;20.890;2023-02-11T00:35:14;48.77;;;17.27;;
19358;SDS011;9815;52.334;20.890;2023-02-11T00:37:42;45.07;;;17.57;;
19358;SDS011;9815;52.334;20.890;2023-02-11T00:40:10;49.10;;;18.77;;
19358;SDS011;9815;52.334;20.890;2023-02-11T00:42:41;44.93;;;17.97;;
19358;SDS011;9815;52.334;20.890;2023-02-11T00:45:09;50.57;;;17.83;;
19358;SDS011;9815;52.334;20.890;2023-02-11T00:47:37;44.10;;;15.40;;
19358;SDS011;9815;52.334;20.890;2023-02-11T00:50:05;37.23;;;15.60;;
19358;SDS011;9815;52.334;20.890;2023-02-11T00:52:35;46.23;;;15.73;;
19358;SDS011;9815;52.334;20.890;2023-02-11T00:55:03;38.40;;;14.47;;
19358;SDS011;9815;52.334;20.890;2023-02-11T00:57:31;39.23;;;14.23;;
19358;SDS011;9815;52.334;20.890;2023-02-11T00:59:59;40.23;;;13.87;;
19358;SDS011;9815;52.334;20.890;2023-02-11T01:02:27;42.17;;;15.83;;
19358;SDS011;9815;52.334;20.890;2023-02-11T01:04:55;35.60;;;14.10;;
19358;SDS011;9815;52.334;20.890;2023-02-11T01:07:25;38.87;;;14.13;;
19358;SDS011;9815;52.334;20.890;2023-02-11T01:09:55;39.30;;;14.63;;
19358;SDS011;9815;52.334;20.890;2023-02-11T01:12:23;38.00;;;15.00;;
19358;SDS011;9815;52.334;20.890;2023-02-11T01:14:52;36.43;;;14.67;;
19358;SDS011;9815;52.334;20.890;2023-02-11T01:17:20;41.90;;;15.30;;
19358;SDS011;9815;52.334;20.890;2023-02-11T01:19:48;32.00;;;13.77;;
19358;SDS011;9815;52.334;20.890;2023-02-11T01:22:16;38.27;;;14.97;;
19358;SDS011;9815;52.334;20.890;2023-02-11T01:24:45;38.50;;;15.03;;
19358;SDS011;9815;52.334;20.890;2023-02-11T01:27:15;41.53;;;14.17;;
19358;SDS011;9815;52.334;20.890;2023-02-11T01:29:43;34.07;;;13.53;;
19358;SDS011;9815;52.334;20.890;2023-02-11T01:32:11;38.93;;;14.63;;
19358;SDS011;9815;52.334;20.890;2023-02-11T01:34:39;39.60;;;13.40;;
19358;SDS011;9815;52.334;20.890;2023-02-11T01:37:07;36.80;;;14.13;;
19358;SDS011;9815;52.334;20.890;2023-02-11T01:39:35;37.20;;;14.60;;
19358;SDS011;9815;52.334;20.890;2023-02-11T01:42:04;39.30;;;14.03;;
19358;SDS011;9815;52.334;20.890;2023-02-11T01:44:34;33.10;;;13.80;;
19358;SDS011;9815;52.334;20.890;2023-02-11T01:47:05;36.53;;;13.00;;
19358;SDS011;9815;52.334;20.890;2023-02-11T01:49:34;36.13;;;13.57;;
19358;SDS011;9815;52.334;20.890;2023-02-11T01:52:06;31.53;;;12.83;;
19358;SDS011;9815;52.334;20.890;2023-02-11T01:54:39;35.77;;;14.00;;
19358;SDS011;9815;52.334;20.890;2023-02-11T01:57:28;33.10;;;13.03;;
19358;SDS011;9815;52.334;20.890;2023-02-11T02:00:07;36.03;;;13.57;;
19358;SDS011;9815;52.334;20.890;2023-02-11T02:02:39;35.90;;;13.10;;
19358;SDS011;9815;52.334;20.890;2023-02-11T02:05:21;34.63;;;13.93;;
19358;SDS011;9815;52.334;20.890;2023-02-11T02:07:57;31.53;;;12.90;;
19358;SDS011;9815;52.334;20.890;2023-02-11T02:10:30;31.60;;;13.13;;
19358;SDS011;9815;52.334;20.890;2023-02-11T02:13:01;39.03;;;13.07;;
19358;SDS011;9815;52.334;20.890;2023-02-11T02:15:31;41.30;;;14.07;;
19358;SDS011;9815;52.334;20.890;2023-02-11T02:18:02;30.43;;;12.63;;
19358;SDS011;9815;52.334;20.890;2023-02-11T02:20:49;32.60;;;13.87;;
19358;SDS011;9815;52.334;20.890;2023-02-11T02:29:50;37.33;;;13.53;;
19358;SDS011;9815;52.334;20.890;2023-02-11T02:32:43;35.03;;;13.83;;
19358;SDS011;9815;52.334;20.890;2023-02-11T02:35:50;34.73;;;13.83;;
19358;SDS011;9815;52.334;20.890;2023-02-11T02:38:26;35.00;;;13.97;;
19358;SDS011;9815;52.334;20.890;2023-02-11T02:41:00;33.57;;;14.43;;
19358;SDS011;9815;52.334;20.890;2023-02-11T02:43:32;35.10;;;13.83;;
19358;SDS011;9815;52.334;20.890;2023-02-11T02:46:10;33.63;;;14.60;;
19358;SDS011;9815;52.334;20.890;2023-02-11T02:48:40;37.33;;;13.60;;
19358;SDS011;9815;52.334;20.890;2023-02-11T02:51:15;43.40;;;15.13;;
19358;SDS011;9815;52.334;20.890;2023-02-11T02:53:54;38.13;;;13.90;;
19358;SDS011;9815;52.334;20.890;2023-02-11T02:56:32;36.40;;;14.53;;
19358;SDS011;9815;52.334;20.890;2023-02-11T02:59:12;34.17;;;13.77;;
19358;SDS011;9815;52.334;20.890;2023-02-11T03:01:55;36.03;;;14.27;;
19358;SDS011;9815;52.334;20.890;2023-02-11T03:04:36;45.97;;;14.07;;
19358;SDS011;9815;52.334;20.890;2023-02-11T03:07:11;34.73;;;12.97;;
19358;SDS011;9815;52.334;20.890;2023-02-11T03:09:47;39.57;;;13.67;;
19358;SDS011;9815;52.334;20.890;2023-02-11T03:12:19;34.90;;;13.70;;
19358;SDS011;9815;52.334;20.890;2023-02-11T03:14:49;30.00;;;13.33;;
19358;SDS011;9815;52.334;20.890;2023-02-11T03:17:18;30.60;;;12.90;;
19358;SDS011;9815;52.334;20.890;2023-02-11T03:19:48;44.77;;;14.50;;
19358;SDS011;9815;52.334;20.890;2023-02-11T03:22:19;35.73;;;13.60;;
19358;SDS011;9815;52.334;20.890;2023-02-11T03:24:51;36.47;;;13.67;;
19358;SDS011;9815;52.334;20.890;2023-02-11T03:27:26;36.83;;;13.40;;
19358;SDS011;9815;52.334;20.890;2023-02-11T03:30:00;37.53;;;13.33;;
19358;SDS011;9815;52.334;20.890;2023-02-11T03:32:34;34.67;;;12.73;;
19358;SDS011;9815;52.334;20.890;2023-02-11T03:35:08;32.37;;;12.70;;
19358;SDS011;9815;52.334;20.890;2023-02-11T03:37:41;32.77;;;12.60;;
19358;SDS011;9815;52.334;20.890;2023-02-11T03:40:18;32.00;;;12.77;;
19358;SDS011;9815;52.334;20.890;2023-02-11T03:42:49;33.77;;;12.40;;
19358;SDS011;9815;52.334;20.890;2023-02-11T03:45:21;32.43;;;12.37;;
19358;SDS011;9815;52.334;20.890;2023-02-11T03:47:50;35.20;;;13.73;;
19358;SDS011;9815;52.334;20.890;2023-02-11T03:50:23;29.87;;;12.30;;
19358;SDS011;9815;52.334;20.890;2023-02-11T03:52:54;31.80;;;12.70;;
19358;SDS011;9815;52.334;20.890;2023-02-11T03:55:23;33.87;;;13.10;;
19358;SDS011;9815;52.334;20.890;2023-02-11T03:57:54;38.17;;;12.70;;
19358;SDS011;9815;52.334;20.890;2023-02-11T04:00:28;37.57;;;12.97;;
19358;SDS011;9815;52.334;20.890;2023-02-11T04:02:56;30.93;;;11.97;;
19358;SDS011;9815;52.334;20.890;2023-02-11T04:05:26;33.73;;;12.63;;
19358;SDS011;9815;52.334;20.890;2023-02-11T04:07:54;30.30;;;11.97;;
19358;SDS011;9815;52.334;20.890;2023-02-11T04:10:22;30.70;;;13.37;;
19358;SDS011;9815;52.334;20.890;2023-02-11T04:12:50;30.23;;;12.80;;
19358;SDS011;9815;52.334;20.890;2023-02-11T04:15:21;32.73;;;12.83;;
19358;SDS011;9815;52.334;20.890;2023-02-11T04:17:50;31.43;;;12.87;;
19358;SDS011;9815;52.334;20.890;2023-02-11T04:20:18;37.53;;;13.53;;
19358;SDS011;9815;52.334;20.890;2023-02-11T04:22:47;38.53;;;14.43;;
19358;SDS011;9815;52.334;20.890;2023-02-11T04:25:15;29.93;;;12.53;;
19358;SDS011;9815;52.334;20.890;2023-02-11T04:27:43;32.67;;;13.00;;
19358;SDS011;9815;52.334;20.890;2023-02-11T04:30:12;33.27;;;14.63;;
19358;SDS011;9815;52.334;20.890;2023-02-11T04:32:40;34.07;;;13.90;;
19358;SDS011;9815;52.334;20.890;2023-02-11T04:35:08;37.80;;;13.83;;
19358;SDS011;9815;52.334;20.890;2023-02-11T04:37:36;36.93;;;14.10;;
19358;SDS011;9815;52.334;20.890;2023-02-11T04:40:06;35.13;;;13.90;;
19358;SDS011;9815;52.334;20.890;2023-02-11T04:42:35;37.83;;;14.03;;
19358;SDS011;9815;52.334;20.890;2023-02-11T04:45:03;40.90;;;14.73;;
19358;SDS011;9815;52.334;20.890;2023-02-11T04:47:32;34.00;;;14.23;;
19358;SDS011;9815;52.334;20.890;2023-02-11T04:50:01;39.40;;;16.07;;
19358;SDS011;9815;52.334;20.890;2023-02-11T04:52:29;36.30;;;14.83;;
19358;SDS011;9815;52.334;20.890;2023-02-11T04:54:57;37.73;;;15.37;;
19358;SDS011;9815;52.334;20.890;2023-02-11T04:57:26;32.70;;;14.63;;
19358;SDS011;9815;52.334;20.890;2023-02-11T04:59:54;37.87;;;15.37;;
19358;SDS011;9815;52.334;20.890;2023-02-11T05:02:22;39.37;;;15.77;;
19358;SDS011;9815;52.334;20.890;2023-02-11T05:04:51;37.10;;;14.77;;
19358;SDS011;9815;52.334;20.890;2023-02-11T05:07:18;41.57;;;16.27;;
19358;SDS011;9815;52.334;20.890;2023-02-11T05:09:46;44.00;;;15.93;;
19358;SDS011;9815;52.334;20.890;2023-02-11T05:12:14;39.57;;;16.20;;
19358;SDS011;9815;52.334;20.890;2023-02-11T05:14:44;43.87;;;17.00;;
19358;SDS011;9815;52.334;20.890;2023-02-11T05:17:12;43.60;;;15.83;;
19358;SDS011;9815;52.334;20.890;2023-02-11T05:19:40;41.00;;;15.77;;
19358;SDS011;9815;52.334;20.890;2023-02-11T05:22:08;42.63;;;15.30;;
19358;SDS011;9815;52.334;20.890;2023-02-11T05:24:36;37.10;;;15.20;;
19358;SDS011;9815;52.334;20.890;2023-02-11T05:27:04;37.83;;;15.17;;
19358;SDS011;9815;52.334;20.890;2023-02-11T05:29:32;41.10;;;15.43;;
19358;SDS011;9815;52.334;20.890;2023-02-11T05:32:01;44.20;;;16.80;;
19358;SDS011;9815;52.334;20.890;2023-02-11T05:34:29;42.17;;;16.43;;
19358;SDS011;9815;52.334;20.890;2023-02-11T05:36:57;32.70;;;13.80;;
19358;SDS011;9815;52.334;20.890;2023-02-11T05:39:25;38.17;;;14.90;;
19358;SDS011;9815;52.334;20.890;2023-02-11T05:41:53;42.57;;;16.13;;
19358;SDS011;9815;52.334;20.890;2023-02-11T05:44:21;38.47;;;15.90;;
19358;SDS011;9815;52.334;20.890;2023-02-11T05:46:49;37.37;;;15.20;;
19358;SDS011;9815;52.334;20.890;2023-02-11T05:49:19;37.83;;;15.83;;
19358;SDS011;9815;52.334;20.890;2023-02-11T05:51:47;46.97;;;15.93;;
19358;SDS011;9815;52.334;20.890;2023-02-11T05:54:15;39.27;;;15.80;;
19358;SDS011;9815;52.334;20.890;2023-02-11T05:56:43;35.27;;;15.47;;
19358;SDS011;9815;52.334;20.890;2023-02-11T05:59:12;42.17;;;17.07;;
19358;SDS011;9815;52.334;20.890;2023-02-11T06:01:40;38.90;;;16.50;;
19358;SDS011;9815;52.334;20.890;2023-02-11T06:04:08;36.13;;;15.90;;
19358;SDS011;9815;52.334;20.890;2023-02-11T06:06:38;39.70;;;15.60;;
19358;SDS011;9815;52.334;20.890;2023-02-11T06:09:06;41.13;;;16.40;;
19358;SDS011;9815;52.334;20.890;2023-02-11T06:11:35;38.37;;;16.87;;
19358;SDS011;9815;52.334;20.890;2023-02-11T06:14:03;36.90;;;16.23;;
19358;SDS011;9815;52.334;20.890;2023-02-11T06:16:31;41.87;;;16.13;;
19358;SDS011;9815;52.334;20.890;2023-02-11T06:18:59;40.07;;;16.67;;
19358;SDS011;9815;52.334;20.890;2023-02-11T06:21:27;38.33;;;16.73;;
19358;SDS011;9815;52.334;20.890;2023-02-11T06:24:09;35.80;;;15.80;;
19358;SDS011;9815;52.334;20.890;2023-02-11T06:26:37;45.17;;;18.10;;
19358;SDS011;9815;52.334;20.890;2023-02-11T06:29:05;43.90;;;18.23;;
19358;SDS011;9815;52.334;20.890;2023-02-11T06:31:35;38.83;;;17.30;;
19358;SDS011;9815;52.334;20.890;2023-02-11T06:34:04;42.87;;;17.90;;
19358;SDS011;9815;52.334;20.890;2023-02-11T06:36:32;42.77;;;17.03;;
19358;SDS011;9815;52.334;20.890;2023-02-11T06:39:00;43.87;;;18.37;;
19358;SDS011;9815;52.334;20.890;2023-02-11T06:41:29;40.50;;;17.93;;
19358;SDS011;9815;52.334;20.890;2023-02-11T06:43:57;47.90;;;19.27;;
19358;SDS011;9815;52.334;20.890;2023-02-11T06:46:25;45.73;;;19.43;;
19358;SDS011;9815;52.334;20.890;2023-02-11T06:48:53;46.17;;;18.93;;
19358;SDS011;9815;52.334;20.890;2023-02-11T06:51:21;49.53;;;18.23;;
19358;SDS011;9815;52.334;20.890;2023-02-11T06:53:49;47.67;;;17.47;;
19358;SDS011;9815;52.334;20.890;2023-02-11T06:56:19;44.60;;;18.20;;
19358;SDS011;9815;52.334;20.890;2023-02-11T06:58:52;45.73;;;17.57;;
19358;SDS011;9815;52.334;20.890;2023-02-11T07:01:21;51.50;;;19.77;;
19358;SDS011;9815;52.334;20.890;2023-02-11T07:03:50;48.60;;;19.57;;
19358;SDS011;9815;52.334;20.890;2023-02-11T07:06:19;44.87;;;18.33;;
19358;SDS011;9815;52.334;20.890;2023-02-11T07:08:48;49.07;;;19.57;;
19358;SDS011;9815;52.334;20.890;2023-02-11T07:11:17;54.03;;;20.90;;
19358;SDS011;9815;52.334;20.890;2023-02-11T07:13:49;50.63;;;20.63;;
19358;SDS011;9815;52.334;20.890;2023-02-11T07:16:19;49.57;;;21.60;;
19358;SDS011;9815;52.334;20.890;2023-02-11T07:18:48;49.97;;;20.57;;
19358;SDS011;9815;52.334;20.890;2023-02-11T07:21:17;51.43;;;20.50;;
19358;SDS011;9815;52.334;20.890;2023-02-11T07:23:48;52.17;;;21.03;;
19358;SDS011;9815;52.334;20.890;2023-02-11T07:26:17;51.73;;;20.60;;
19358;SDS011;9815;52.334;20.890;2023-02-11T07:28:48;46.30;;;21.10;;
19358;SDS011;9815;52.334;20.890;2023-02-11T07:31:18;50.27;;;20.83;;
19358;SDS011;9815;52.334;20.890;2023-02-11T07:33:48;48.40;;;21.40;;
19358;SDS011;9815;52.334;20.890;2023-02-11T07:36:17;55.53;;;21.27;;
19358;SDS011;9815;52.334;20.890;2023-02-11T07:38:45;59.73;;;22.17;;
19358;SDS011;9815;52.334;20.890;2023-02-11T07:41:15;51.70;;;21.33;;
19358;SDS011;9815;52.334;20.890;2023-02-11T07:43:45;56.10;;;22.00;;
19358;SDS011;9815;52.334;20.890;2023-02-11T07:46:14;56.93;;;21.93;;
19358;SDS011;9815;52.334;20.890;2023-02-11T07:48:45;54.50;;;21.17;;
19358;SDS011;9815;52.334;20.890;2023-02-11T07:51:14;58.90;;;23.17;;
19358;SDS011;9815;52.334;20.890;2023-02-11T07:53:43;63.37;;;23.20;;
19358;SDS011;9815;52.334;20.890;2023-02-11T07:56:12;49.43;;;22.20;;
19358;SDS011;9815;52.334;20.890;2023-02-11T07:58:41;59.23;;;22.83;;
19358;SDS011;9815;52.334;20.890;2023-02-11T08:01:11;54.30;;;22.73;;
19358;SDS011;9815;52.334;20.890;2023-02-11T08:03:41;53.70;;;21.90;;
19358;SDS011;9815;52.334;20.890;2023-02-11T08:06:11;56.43;;;23.43;;
19358;SDS011;9815;52.334;20.890;2023-02-11T08:08:40;54.07;;;21.47;;
19358;SDS011;9815;52.334;20.890;2023-02-11T08:11:09;57.20;;;23.13;;
19358;SDS011;9815;52.334;20.890;2023-02-11T08:13:39;57.53;;;22.90;;
19358;SDS011;9815;52.334;20.890;2023-02-11T08:16:07;55.77;;;21.63;;
19358;SDS011;9815;52.334;20.890;2023-02-11T08:18:36;64.63;;;23.97;;
19358;SDS011;9815;52.334;20.890;2023-02-11T08:21:04;63.47;;;23.53;;
19358;SDS011;9815;52.334;20.890;2023-02-11T08:23:34;54.57;;;22.27;;
19358;SDS011;9815;52.334;20.890;2023-02-11T08:26:03;59.13;;;23.80;;
19358;SDS011;9815;52.334;20.890;2023-02-11T08:28:34;65.90;;;25.20;;
19358;SDS011;9815;52.334;20.890;2023-02-11T08:31:03;61.43;;;24.63;;
19358;SDS011;9815;52.334;20.890;2023-02-11T08:33:33;57.03;;;23.83;;
19358;SDS011;9815;52.334;20.890;2023-02-11T08:36:06;63.47;;;25.23;;
19358;SDS011;9815;52.334;20.890;2023-02-11T08:38:36;55.87;;;24.00;;
19358;SDS011;9815;52.334;20.890;2023-02-11T08:41:06;56.67;;;23.60;;
19358;SDS011;9815;52.334;20.890;2023-02-11T08:43:34;53.00;;;22.37;;
19358;SDS011;9815;52.334;20.890;2023-02-11T08:46:07;61.07;;;24.83;;
19358;SDS011;9815;52.334;20.890;2023-02-11T08:48:36;62.97;;;23.57;;
19358;SDS011;9815;52.334;20.890;2023-02-11T08:51:04;63.27;;;23.10;;
19358;SDS011;9815;52.334;20.890;2023-02-11T08:53:33;56.10;;;23.47;;
19358;SDS011;9815;52.334;20.890;2023-02-11T08:56:03;64.10;;;23.97;;
19358;SDS011;9815;52.334;20.890;2023-02-11T08:58:32;53.73;;;23.93;;
19358;SDS011;9815;52.334;20.890;2023-02-11T09:01:00;54.07;;;21.73;;
19358;SDS011;9815;52.334;20.890;2023-02-11T09:03:28;55.70;;;22.10;;
19358;SDS011;9815;52.334;20.890;2023-02-11T09:05:56;55.97;;;22.57;;
19358;SDS011;9815;52.334;20.890;2023-02-11T09:08:24;56.53;;;23.30;;
19358;SDS011;9815;52.334;20.890;2023-02-11T09:10:54;62.37;;;24.27;;
19358;SDS011;9815;52.334;20.890;2023-02-11T09:13:24;52.60;;;23.13;;
19358;SDS011;9815;52.334;20.890;2023-02-11T09:15:52;58.20;;;22.33;;
19358;SDS011;9815;52.334;20.890;2023-02-11T09:18:19;57.97;;;23.10;;
19358;SDS011;9815;52.334;20.890;2023-02-11T09:20:47;56.03;;;23.13;;
19358;SDS011;9815;52.334;20.890;2023-02-11T09:23:16;62.50;;;24.97;;
19358;SDS011;9815;52.334;20.890;2023-02-11T09:25:44;60.73;;;22.90;;
19358;SDS011;9815;52.334;20.890;2023-02-11T09:28:12;64.50;;;24.53;;
19358;SDS011;9815;52.334;20.890;2023-02-11T09:30:42;58.97;;;23.87;;
19358;SDS011;9815;52.334;20.890;2023-02-11T09:33:10;57.33;;;23.67;;
19358;SDS011;9815;52.334;20.890;2023-02-11T09:35:38;63.57;;;25.50;;
19358;SDS011;9815;52.334;20.890;2023-02-11T09:38:06;65.33;;;26.00;;
19358;SDS011;9815;52.334;20.890;2023-02-11T09:40:33;67.17;;;25.27;;
19358;SDS011;9815;52.334;20.890;2023-02-11T09:43:03;62.87;;;24.80;;
19358;SDS011;9815;52.334;20.890;2023-02-11T09:45:35;60.27;;;24.93;;
19358;SDS011;9815;52.334;20.890;2023-02-11T09:48:05;61.63;;;25.20;;
19358;SDS011;9815;52.334;20.890;2023-02-11T09:50:41;56.80;;;23.17;;
19358;SDS011;9815;52.334;20.890;2023-02-11T09:53:12;60.70;;;24.23;;
19358;SDS011;9815;52.334;20.890;2023-02-11T09:55:44;62.07;;;26.30;;
19358;SDS011;9815;52.334;20.890;2023-02-11T09:58:19;57.67;;;23.43;;
19358;SDS011;9815;52.334;20.890;2023-02-11T10:00:51;57.20;;;24.33;;
19358;SDS011;9815;52.334;20.890;2023-02-11T10:03:36;66.13;;;25.83;;
19358;SDS011;9815;52.334;20.890;2023-02-11T10:06:16;64.63;;;25.67;;
19358;SDS011;9815;52.334;20.890;2023-02-11T10:08:56;68.33;;;25.37;;
19358;SDS011;9815;52.334;20.890;2023-02-11T10:11:30;67.63;;;25.83;;
19358;SDS011;9815;52.334;20.890;2023-02-11T10:14:06;70.10;;;26.87;;
19358;SDS011;9815;52.334;20.890;2023-02-11T10:16:49;73.77;;;26.17;;
19358;SDS011;9815;52.334;20.890;2023-02-11T10:19:37;64.43;;;24.90;;
19358;SDS011;9815;52.334;20.890;2023-02-11T10:22:16;70.67;;;25.67;;
19358;SDS011;9815;52.334;20.890;2023-02-11T10:24:49;67.57;;;25.47;;
19358;SDS011;9815;52.334;20.890;2023-02-11T10:27:25;68.20;;;27.00;;
19358;SDS011;9815;52.334;20.890;2023-02-11T10:29:58;71.17;;;28.10;;
19358;SDS011;9815;52.334;20.890;2023-02-11T10:32:30;75.77;;;27.43;;
19358;SDS011;9815;52.334;20.890;2023-02-11T10:35:12;71.60;;;25.93;;
19358;SDS011;9815;52.334;20.890;2023-02-11T10:37:43;80.17;;;28.47;;
19358;SDS011;9815;52.334;20.890;2023-02-11T10:40:12;75.50;;;28.03;;
19358;SDS011;9815;52.334;20.890;2023-02-11T10:42:50;71.40;;;26.63;;
19358;SDS011;9815;52.334;20.890;2023-02-11T10:45:22;74.63;;;26.77;;
19358;SDS011;9815;52.334;20.890;2023-02-11T10:47:54;86.63;;;29.33;;
19358;SDS011;9815;52.334;20.890;2023-02-11T10:50:26;80.10;;;29.20;;
19358;SDS011;9815;52.334;20.890;2023-02-11T10:53:10;90.77;;;31.50;;
19358;SDS011;9815;52.334;20.890;2023-02-11T10:55:47;75.27;;;28.87;;
19358;SDS011;9815;52.334;20.890;2023-02-11T10:58:22;83.00;;;30.37;;
19358;SDS011;9815;52.334;20.890;2023-02-11T11:00:52;82.73;;;29.23;;
19358;SDS011;9815;52.334;20.890;2023-02-11T11:03:22;101.40;;;31.60;;
19358;SDS011;9815;52.334;20.890;2023-02-11T11:05:54;91.40;;;31.60;;
19358;SDS011;9815;52.334;20.890;2023-02-11T11:08:35;89.50;;;31.80;;
19358;SDS011;9815;52.334;20.890;2023-02-11T11:11:07;82.33;;;29.70;;
19358;SDS011;9815;52.334;20.890;2023-02-11T11:13:36;98.57;;;31.43;;
19358;SDS011;9815;52.334;20.890;2023-02-11T11:16:06;93.30;;;33.03;;
19358;SDS011;9815;52.334;20.890;2023-02-11T11:18:51;94.00;;;30.57;;
19358;SDS011;9815;52.334;20.890;2023-02-11T11:21:22;110.17;;;33.07;;
19358;SDS011;9815;52.334;20.890;2023-02-11T11:23:55;101.50;;;31.93;;
19358;SDS011;9815;52.334;20.890;2023-02-11T11:26:25;94.83;;;32.43;;
19358;SDS011;9815;52.334;20.890;2023-02-11T11:28:56;100.13;;;32.97;;
19358;SDS011;9815;52.334;20.890;2023-02-11T11:31:28;95.57;;;30.23;;
19358;SDS011;9815;52.334;20.890;2023-02-11T11:34:00;98.90;;;34.07;;
19358;SDS011;9815;52.334;20.890;2023-02-11T11:36:35;102.60;;;33.67;;
19358;SDS011;9815;52.334;20.890;2023-02-11T11:39:14;104.93;;;33.27;;
19358;SDS011;9815;52.334;20.890;2023-02-11T11:41:53;89.43;;;29.80;;
19358;SDS011;9815;52.334;20.890;2023-02-11T11:44:24;102.50;;;32.97;;
19358;SDS011;9815;52.334;20.890;2023-02-11T11:47:06;98.40;;;34.87;;
19358;SDS011;9815;52.334;20.890;2023-02-11T11:49:47;104.07;;;33.20;;
19358;SDS011;9815;52.334;20.890;2023-02-11T11:52:28;96.87;;;30.07;;
19358;SDS011;9815;52.334;20.890;2023-02-11T11:55:05;87.50;;;32.20;;
19358;SDS011;9815;52.334;20.890;2023-02-11T11:57:39;102.83;;;33.37;;
19358;SDS011;9815;52.334;20.890;2023-02-11T12:00:13;103.33;;;34.13;;
19358;SDS011;9815;52.334;20.890;2023-02-11T12:02:50;99.43;;;33.47;;
19358;SDS011;9815;52.334;20.890;2023-02-11T12:05:42;97.20;;;32.83;;
19358;SDS011;9815;52.334;20.890;2023-02-11T12:08:21;92.40;;;32.87;;
19358;SDS011;9815;52.334;20.890;2023-02-11T12:10:57;92.77;;;32.60;;
19358;SDS011;9815;52.334;20.890;2023-02-11T12:13:44;80.20;;;29.93;;
19358;SDS011;9815;52.334;20.890;2023-02-11T12:16:27;97.50;;;33.30;;
19358;SDS011;9815;52.334;20.890;2023-02-11T12:22:02;98.80;;;33.30;;
19358;SDS011;9815;52.334;20.890;2023-02-11T12:24:41;91.13;;;32.13;;
19358;SDS011;9815;52.334;20.890;2023-02-11T12:27:21;102.93;;;33.67;;
19358;SDS011;9815;52.334;20.890;2023-02-11T12:30:03;97.03;;;34.20;;
19358;SDS011;9815;52.334;20.890;2023-02-11T12:32:46;95.07;;;33.47;;
19358;SDS011;9815;52.334;20.890;2023-02-11T12:35:23;104.57;;;34.10;;
19358;SDS011;9815;52.334;20.890;2023-02-11T12:40:53;97.37;;;32.87;;
19358;SDS011;9815;52.334;20.890;2023-02-11T12:43:31;104.77;;;34.27;;
19358;SDS011;9815;52.334;20.890;2023-02-11T12:46:26;94.83;;;34.77;;
19358;SDS011;9815;52.334;20.890;2023-02-11T12:49:10;101.63;;;35.13;;
19358;SDS011;9815;52.334;20.890;2023-02-11T12:51:58;96.40;;;35.10;;
19358;SDS011;9815;52.334;20.890;2023-02-11T12:54:38;118.20;;;37.77;;
19358;SDS011;9815;52.334;20.890;2023-02-11T12:57:14;104.80;;;37.17;;
19358;SDS011;9815;52.334;20.890;2023-02-11T12:59:50;95.50;;;34.73;;
19358;SDS011;9815;52.334;20.890;2023-02-11T13:02:26;113.57;;;35.93;;
19358;SDS011;9815;52.334;20.890;2023-02-11T13:05:01;111.80;;;37.30;;
19358;SDS011;9815;52.334;20.890;2023-02-11T13:07:40;102.37;;;35.87;;
19358;SDS011;9815;52.334;20.890;2023-02-11T13:10:15;87.17;;;29.30;;
19358;SDS011;9815;52.334;20.890;2023-02-11T13:12:53;105.07;;;35.70;;
19358;SDS011;9815;52.334;20.890;2023-02-11T13:15:41;98.07;;;34.27;;
19358;SDS011;9815;52.334;20.890;2023-02-11T13:18:13;96.83;;;34.17;;
19358;SDS011;9815;52.334;20.890;2023-02-11T13:20:50;93.97;;;33.97;;
19358;SDS011;9815;52.334;20.890;2023-02-11T13:23:22;87.60;;;30.70;;
19358;SDS011;9815;52.334;20.890;2023-02-11T13:25:58;101.43;;;34.17;;
19358;SDS011;9815;52.334;20.890;2023-02-11T13:28:37;93.67;;;34.17;;
19358;SDS011;9815;52.334;20.890;2023-02-11T13:31:12;98.43;;;34.43;;
19358;SDS011;9815;52.334;20.890;2023-02-11T13:33:45;99.20;;;34.67;;
19358;SDS011;9815;52.334;20.890;2023-02-11T13:36:22;103.23;;;33.10;;
19358;SDS011;9815;52.334;20.890;2023-02-11T13:38:56;97.03;;;34.43;;
19358;SDS011;9815;52.334;20.890;2023-02-11T13:41:28;98.50;;;33.13;;
19358;SDS011;9815;52.334;20.890;2023-02-11T13:47:00;93.50;;;31.80;;
19358;SDS011;9815;52.334;20.890;2023-02-11T13:49:31;100.80;;;33.30;;
19358;SDS011;9815;52.334;20.890;2023-02-11T13:52:03;95.87;;;33.43;;
19358;SDS011;9815;52.334;20.890;2023-02-11T13:54:33;93.80;;;35.00;;
19358;SDS011;9815;52.334;20.890;2023-02-11T13:59:59;90.27;;;33.03;;
19358;SDS011;9815;52.334;20.890;2023-02-11T14:02:31;81.20;;;31.13;;
19358;SDS011;9815;52.334;20.890;2023-02-11T14:05:20;94.83;;;33.83;;
19358;SDS011;9815;52.334;20.890;2023-02-11T14:08:16;88.43;;;32.37;;
19358;SDS011;9815;52.334;20.890;2023-02-11T14:14:16;81.67;;;31.67;;
19358;SDS011;9815;52.334;20.890;2023-02-11T14:19:56;93.20;;;31.83;;
19358;SDS011;9815;52.334;20.890;2023-02-11T14:22:26;91.23;;;33.97;;
19358;SDS011;9815;52.334;20.890;2023-02-11T14:24:57;99.50;;;34.57;;
19358;SDS011;9815;52.334;20.890;2023-02-11T14:27:30;86.03;;;31.00;;
19358;SDS011;9815;52.334;20.890;2023-02-11T14:30:07;90.23;;;32.27;;
19358;SDS011;9815;52.334;20.890;2023-02-11T14:32:50;86.00;;;32.83;;
19358;SDS011;9815;52.334;20.890;2023-02-11T14:35:31;86.77;;;31.83;;
19358;SDS011;9815;52.334;20.890;2023-02-11T14:38:03;83.80;;;31.87;;
19358;SDS011;9815;52.334;20.890;2023-02-11T14:40:39;80.90;;;29.90;;
19358;SDS011;9815;52.334;20.890;2023-02-11T14:43:15;81.00;;;30.30;;
19358;SDS011;9815;52.334;20.890;2023-02-11T14:45:47;80.87;;;29.50;;
19358;SDS011;9815;52.334;20.890;2023-02-11T14:48:19;107.73;;;40.77;;
19358;SDS011;9815;52.334;20.890;2023-02-11T14:50:53;81.40;;;31.27;;
19358;SDS011;9815;52.334;20.890;2023-02-11T14:53:26;82.23;;;30.27;;
19358;SDS011;9815;52.334;20.890;2023-02-11T14:55:56;74.50;;;29.60;;
19358;SDS011;9815;52.334;20.890;2023-02-11T14:58:25;82.70;;;29.03;;
19358;SDS011;9815;52.334;20.890;2023-02-11T15:00:57;65.67;;;24.60;;
19358;SDS011;9815;52.334;20.890;2023-02-11T15:03:28;81.00;;;29.87;;
19358;SDS011;9815;52.334;20.890;2023-02-11T15:05:59;74.10;;;29.67;;
19358;SDS011;9815;52.334;20.890;2023-02-11T15:08:30;83.07;;;29.13;;
19358;SDS011;9815;52.334;20.890;2023-02-11T15:11:01;73.07;;;29.43;;
19358;SDS011;9815;52.334;20.890;2023-02-11T15:13:30;70.30;;;29.13;;